»·PEaware :: FFT882 KABQ-KCOS

FFT882 :: KABQ-KCOS

FLIGHT INFORMATION

Flight Status: Arrived
Operator:
Frontier Airlines
More flights by this operator :: More flights under this callsign
Pilot: Ben L. (6391)
Aircraft: AIRBUS A319
(A319)
More flights by this aircraft type
Origin: KABQ Albuquerque Intl Sunport
United States
Destination: KCOS City Of Colorado Springs Mun
United States
More flights between these airports :: More routes between these airports
Route: +JEMEZ3 JEMEZ ALS DBRY3
File this flight plan on PilotEdge
Remarks:
Altitude:
(Current/Filed)
37,000ft
Speed:
(Current/Filed)
460kts
Departed: 14-Aug-19 10:22 AM
Arrived: 14-Aug-19 11:16 AM
Distance/Time
Traveled:
243nm/0:53
Distance/Time
To Go:
Arrived

Flight Plot

Page will automatically refresh every two minutes.

Flight plan parsing failed; only flown route is shown


Map Options




Map Legend


Flown Route
Filed Route
Departure Airport
Arrival Airport
Navaid (VOR, NDB)
Fix

Horizontal Profiles

Position Reports

Time Latitude Longitude Heading Altitude Ground
Speed
14-Aug-19 09:56 35.048773 -106.615302 180 5324ft 0kts
14-Aug-19 09:57 35.048773 -106.615302 180 5324ft 0kts
14-Aug-19 09:58 35.048773 -106.615302 180 5324ft 0kts
14-Aug-19 09:59 35.048773 -106.615302 180 5324ft 0kts
14-Aug-19 10:00 35.048773 -106.615302 180 5324ft 0kts
14-Aug-19 10:01 35.048773 -106.615302 180 5324ft 0kts
14-Aug-19 10:02 35.048773 -106.615302 180 5324ft 0kts
14-Aug-19 10:03 35.048773 -106.615302 180 5324ft 0kts
14-Aug-19 10:04 35.048773 -106.615302 180 5324ft 0kts
14-Aug-19 10:05 35.048773 -106.615302 180 5324ft 0kts
14-Aug-19 10:06 35.048773 -106.615302 180 5324ft 0kts
14-Aug-19 10:07 35.048773 -106.615302 180 5324ft 0kts
14-Aug-19 10:08 35.048773 -106.615302 180 5324ft 0kts
14-Aug-19 10:09 35.048773 -106.615302 180 5324ft 0kts
14-Aug-19 10:10 35.048773 -106.615302 180 5324ft 0kts
14-Aug-19 10:11 35.048773 -106.615302 180 5324ft 0kts
14-Aug-19 10:12 35.048413 -106.613945 82 5324ft 11kts
14-Aug-19 10:13 35.046987 -106.613430 186 5324ft 1kts
14-Aug-19 10:14 35.046763 -106.613463 186 5324ft 0kts
14-Aug-19 10:15 35.046759 -106.613464 186 5324ft 0kts
14-Aug-19 10:16 35.046632 -106.613483 186 5324ft 0kts
14-Aug-19 10:17 35.045626 -106.614106 237 5324ft 12kts
14-Aug-19 10:18 35.045584 -106.618982 269 5324ft 16kts
14-Aug-19 10:19 35.045365 -106.621248 213 5324ft 1kts
14-Aug-19 10:20 35.045005 -106.621376 184 5324ft 8kts
14-Aug-19 10:21 35.044239 -106.601555 87 5330ft 155kts
14-Aug-19 10:22 35.061727 -106.553708 21 7362ft 189kts
14-Aug-19 10:23 35.117133 -106.559286 334 9435ft 221kts
14-Aug-19 10:24 35.180616 -106.598125 332 11684ft 261kts
14-Aug-19 10:25 35.224349 -106.666190 286 13530ft 301kts
14-Aug-19 10:26 35.278468 -106.749997 327 15009ft 358kts
14-Aug-19 10:27 35.365176 -106.815648 326 17511ft 373kts
14-Aug-19 10:28 35.460659 -106.867471 349 19821ft 391kts
14-Aug-19 10:29 35.569116 -106.883958 349 21905ft 402kts
14-Aug-19 10:30 35.680833 -106.901124 349 23695ft 414kts
14-Aug-19 10:31 35.798696 -106.919282 349 25367ft 424kts
14-Aug-19 10:32 35.919508 -106.934779 1 26853ft 440kts
14-Aug-19 10:33 36.028633 -106.872068 29 28362ft 456kts
14-Aug-19 10:34 36.137026 -106.786271 28 29919ft 455kts
14-Aug-19 10:35 36.238556 -106.706616 27 31301ft 454kts
14-Aug-19 10:36 36.344154 -106.623357 27 31459ft 452kts
14-Aug-19 10:37 36.450560 -106.539140 27 31478ft 453kts
14-Aug-19 10:38 36.557022 -106.454606 27 31481ft 455kts
14-Aug-19 10:39 36.663555 -106.369716 27 31481ft 454kts
14-Aug-19 10:40 36.765060 -106.288190 28 31480ft 454kts
14-Aug-19 10:41 36.871495 -106.202659 28 31481ft 454kts
14-Aug-19 10:42 36.977710 -106.117187 28 31482ft 454kts
14-Aug-19 10:43 37.082737 -106.032437 29 31476ft 449kts
14-Aug-19 10:44 37.181761 -105.952391 29 31461ft 447kts
14-Aug-19 10:45 37.285837 -105.867713 30 31457ft 447kts
14-Aug-19 10:46 37.382130 -105.768713 43 31457ft 450kts
14-Aug-19 10:47 37.465261 -105.649631 46 31457ft 450kts
14-Aug-19 10:48 37.546793 -105.531609 46 31457ft 451kts
14-Aug-19 10:49 37.629500 -105.411614 46 31456ft 452kts
14-Aug-19 10:50 37.709154 -105.295393 46 31455ft 452kts
14-Aug-19 10:51 37.791047 -105.175414 46 31314ft 447kts
14-Aug-19 10:52 37.872031 -105.056585 46 28731ft 444kts
14-Aug-19 10:53 37.953110 -104.937142 46 25945ft 444kts
14-Aug-19 10:54 38.032496 -104.819853 46 23800ft 430kts
14-Aug-19 10:55 38.103530 -104.714436 47 21982ft 415kts
14-Aug-19 10:56 38.191505 -104.649350 357 19871ft 393kts
14-Aug-19 10:57 38.299005 -104.648272 358 17815ft 382kts
14-Aug-19 10:58 38.403319 -104.646144 358 16027ft 367kts
14-Aug-19 10:59 38.506058 -104.645531 357 14994ft 356kts
14-Aug-19 11:00 38.599687 -104.646011 357 13582ft 333kts
14-Aug-19 11:01 38.688305 -104.646774 357 12204ft 314kts
14-Aug-19 11:02 38.771680 -104.647749 357 10903ft 298kts
14-Aug-19 11:03 38.838258 -104.648616 357 9989ft 272kts
14-Aug-19 11:04 38.891091 -104.649465 357 9189ft 263kts
14-Aug-19 11:05 38.955099 -104.629470 27 9003ft 254kts
14-Aug-19 11:06 39.002589 -104.597037 27 9009ft 254kts
14-Aug-19 11:08 39.063449 -104.573869 330 8996ft 250kts
14-Aug-19 11:09 39.079378 -104.667643 237 8976ft 234kts
14-Aug-19 11:10 39.029270 -104.686182 180 9008ft 186kts
14-Aug-19 11:11 38.981383 -104.685419 181 9002ft 176kts
14-Aug-19 11:12 38.924493 -104.685439 180 8230ft 173kts
14-Aug-19 11:13 38.880122 -104.685570 179 7410ft 154kts
14-Aug-19 11:14 38.837748 -104.685612 177 6567ft 148kts
14-Aug-19 11:15 38.799013 -104.685765 179 6101ft 87kts
14-Aug-19 11:16 38.791718 -104.687852 350 6100ft 9kts
14-Aug-19 11:17 38.795082 -104.687880 359 6100ft 14kts
14-Aug-19 11:18 38.800982 -104.687874 0 6100ft 28kts
14-Aug-19 11:19 38.802794 -104.693195 270 6100ft 18kts
14-Aug-19 11:20 38.800418 -104.697793 220 6100ft 18kts
14-Aug-19 11:21 38.798256 -104.698486 131 6100ft 0kts
14-Aug-19 11:22 38.798256 -104.698486 131 6100ft 0kts
14-Aug-19 11:23 38.798256 -104.698486 131 6100ft 0kts
14-Aug-19 11:24 38.798256 -104.698486 131 6100ft 0kts

Navigation Log

Ident Type
Flight plan parsing failed, navigation log unavailable